Data for 06/26/2016

Time Sea-Level Adjusted Pressure Absolute Pressure Temperature Relative Humidity Dew Point   
(mb) (inHg) (mb) (inHg) (C) (F) (%) (C) (F)
00:05 1024 30.24 853 25.19 11 51.7 47 0.1 32.1
00:10 1024 30.24 853 25.19 11.2 52.1 45 -0.1 31.8
00:15 1024 30.24 853 25.19 11.1 52.1 46 0.1 32.2
00:20 1024 30.24 853 25.19 11 51.7 47 0.1 32.2
00:25 1024 30.24 853 25.19 10.9 51.6 46 -0.1 31.8
00:30 1024 30.24 853 25.19 10.9 51.5 47 0.2 32.3
00:35 1024 30.24 853 25.19 10.6 51.1 47 -0 31.9
00:40 1024 30.24 853 25.19 10.7 51.3 46 -0.4 31.3
00:45 1024 30.24 853 25.19 10.9 51.7 47 0.2 32.4
00:50 1024 30.24 853 25.19 10.6 51 49 0.3 32.6
00:55 1024 30.24 853 25.19 10.3 50.5 49 0.1 32.2
01:00 1024 30.24 853 25.19 10.3 50.6 48 -0.1 31.9
01:05 1024 30.24 853 25.19 10.5 50.9 49 0.2 32.4
01:10 1024 30.24 853 25.19 10.4 50.6 48 -0.1 31.8
01:15 1024 30.24 853 25.19 10.4 50.7 49 0.2 32.4
01:20 1024 30.24 853 25.19 10.3 50.5 49 0.1 32.2
01:25 1024 30.24 853 25.19 10.1 50.1 50 0.2 32.4
01:30 1024 30.24 854 25.22 9.8 49.7 50 0 32
01:35 1024 30.24 854 25.22 9.8 49.7 51 0.2 32.4
01:40 1024 30.24 854 25.22 9.6 49.3 52 0.4 32.7
01:45 1024 30.24 854 25.22 9.3 48.8 53 0.3 32.5
01:50 1024 30.24 854 25.22 9.2 48.6 53 0.2 32.4
01:55 1024 30.24 854 25.22 9.1 48.4 55 0.5 33
02:00 1024 30.24 854 25.22 8.8 47.9 55 0.4 32.8
02:05 1024 30.24 854 25.22 8.9 47.9 54 0.2 32.3
02:10 1024 30.24 854 25.22 9 48.3 53 0.1 32.2
02:15 1024 30.24 854 25.22 9.2 48.5 52 -0 32
02:20 1024 30.24 854 25.22 9.4 48.9 52 0 32.1
02:25 1024 30.24 854 25.22 9.4 48.9 53 0.4 32.6
02:30 1024 30.24 854 25.22 9.2 48.6 55 0.6 33
02:35 1024 30.24 854 25.22 9 48.1 56 0.6 33.1
02:40 1024 30.24 854 25.22 8.8 47.9 56 0.5 33
02:45 1024 30.24 853 25.19 8.7 47.7 56 0.6 33
02:50 1024 30.24 853 25.19 8.8 47.8 55 0.3 32.6
02:55 1024 30.24 853 25.19 9.1 48.3 54 0.2 32.4
03:00 1024 30.24 853 25.19 9.3 48.7 53 0.2 32.4
03:05 1024 30.24 853 25.19 9.5 49 52 0.2 32.3
03:10 1024 30.24 853 25.19 9.7 49.4 51 0.1 32.2
03:15 1024 30.24 854 25.22 9.8 49.7 51 0.1 32.2
03:20 1024 30.24 854 25.22 10 50 51 0.3 32.5
03:25 1024 30.24 854 25.22 9.8 49.6 52 0.5 33
03:30 1024 30.24 854 25.22 9.4 48.9 53 0.4 32.8
03:35 1024 30.24 854 25.22 9.2 48.5 54 0.4 32.7
03:40 1024 30.24 854 25.22 9.2 48.5 54 0.4 32.7
03:45 1024 30.24 854 25.22 9.1 48.4 54 0.4 32.8
03:50 1024 30.24 854 25.22 9.1 48.4 54 0.4 32.7
03:55 1024 30.24 854 25.22 9.1 48.3 54 0.4 32.6
04:00 1024 30.24 854 25.22 9.1 48.4 54 0.3 32.6
04:05 1024 30.24 854 25.22 9.2 48.6 53 0.2 32.4
04:10 1025 30.27 854 25.22 9.3 48.8 53 0.3 32.5
04:15 1025 30.27 854 25.22 9.3 48.7 54 0.4 32.8
04:20 1025 30.27 854 25.22 9.1 48.4 55 0.7 33.2
04:25 1025 30.27 854 25.22 8.8 47.9 57 0.9 33.6
04:30 1025 30.27 854 25.22 8.6 47.5 57 0.7 33.2
04:35 1025 30.27 854 25.22 8.5 47.4 58 0.8 33.4
04:40 1025 30.27 854 25.22 8.2 46.8 59 0.6 33.2
04:45 1025 30.27 854 25.22 8.2 46.8 57 0.3 32.5
04:50 1025 30.27 854 25.22 8.7 47.6 56 0.3 32.6
04:55 1025 30.27 854 25.22 8.9 48.1 55 0.4 32.7
05:00 1025 30.27 854 25.22 8.9 48 56 0.5 33
05:05 1025 30.27 854 25.22 9 48.2 55 0.4 32.8
05:10 1025 30.27 854 25.22 9.1 48.3 55 0.6 33.2
05:15 1025 30.27 854 25.22 9 48.2 55 0.5 32.9
05:20 1025 30.27 854 25.22 9.2 48.6 54 0.4 32.8
05:25 1025 30.27 854 25.22 9.3 48.7 54 0.6 33.1
05:30 1025 30.27 854 25.22 9.2 48.5 55 0.7 33.3
05:35 1025 30.27 854 25.22 9.2 48.5 55 0.7 33.3
05:40 1025 30.27 854 25.22 9.4 48.9 55 0.8 33.4
05:45 1025 30.27 854 25.22 9.5 49.2 55 1 33.7
05:50 1025 30.27 855 25.25 9.6 49.4 55 1.1 33.9
05:55 1025 30.27 855 25.25 9.7 49.4 55 1 33.8
06:00 1025 30.27 855 25.25 9.9 49.8 55 1.2 34.2
06:05 1025 30.27 855 25.25 10.2 50.4 53 1.1 34
06:10 1025 30.27 855 25.25 10.4 50.7 53 1.2 34.2
06:15 1025 30.27 855 25.25 10.6 51 52 1.3 34.3
06:20 1025 30.27 855 25.25 11 51.7 52 1.6 35
06:25 1025 30.27 855 25.25 11 51.8 53 1.7 35.1
06:30 1025 30.27 855 25.25 11.2 52.1 53 1.9 35.4
06:35 1026 30.3 855 25.25 11.7 53.1 50 1.7 35
06:40 1026 30.3 855 25.25 12.2 53.9 49 1.9 35.3
06:45 1026 30.3 855 25.25 12.3 54.2 49 1.9 35.4
06:50 1026 30.3 855 25.25 12.8 55 46 1.6 35
06:55 1026 30.3 855 25.25 13.2 55.8 46 2 35.6
07:00 1026 30.3 855 25.25 13.9 57.1 44 1.8 35.3
07:05 1026 30.3 855 25.25 14.1 57.4 44 2 35.6
07:10 1026 30.3 855 25.25 14.3 57.8 40 1.1 33.9
07:15 1026 30.3 855 25.25 14.3 57.8 44 2.3 36.2
07:20 1026 30.3 855 25.25 14.3 57.7 43 1.9 35.4
07:25 1026 30.3 855 25.25 14.7 58.4 41 1.5 34.7
07:30 1026 30.3 855 25.25 15.7 60.2 38 1.3 34.4
07:35 1026 30.3 855 25.25 16.5 61.6 35 1.2 34.1
07:40 1026 30.3 855 25.25 16.7 62 35 1.1 34.1
07:45 1026 30.3 855 25.25 16.1 60.9 37 1.5 34.7
07:50 1026 30.3 855 25.25 15.8 60.4 38 1.5 34.7
07:55 1026 30.3 855 25.25 16.7 62.1 35 1.4 34.5
08:00 1026 30.3 855 25.25 17.4 63.2 35 1.8 35.2
08:05 1026 30.3 855 25.25 17.1 62.8 36 2.2 35.9
08:10 1026 30.3 855 25.25 16.8 62.3 36 1.6 34.9
08:15 1026 30.3 855 25.25 17.2 63 36 2 35.5
08:20 1026 30.3 855 25.25 17.4 63.4 34 1.3 34.4
08:25 1026 30.3 855 25.25 17.6 63.7 34 1.6 34.9
08:30 1026 30.3 855 25.25 17.8 64.1 33 1.6 34.8
08:35 1026 30.3 855 25.25 18.3 65 33 2.1 35.7
08:40 1026 30.3 855 25.25 17.8 64 35 2.1 35.8
08:45 1026 30.3 855 25.25 18.7 65.6 33 2.1 35.8
08:50 1026 30.3 855 25.25 18.9 66 32 2 35.7
08:55 1026 30.3 855 25.25 18.9 66 33 2.3 36.1
09:00 1026 30.3 855 25.25 18.9 66 33 2.3 36.1
09:05 1026 30.3 855 25.25 19.2 66.6 32 2.3 36.2
09:10 1026 30.3 855 25.25 19.5 67.2 31 1.9 35.4
09:15 1026 30.3 855 25.25 19.9 67.7 31 2.4 36.2
09:20 1026 30.3 855 25.25 20.5 68.9 30 2.3 36.1
09:25 1026 30.3 855 25.25 19.2 66.5 34 3.1 37.6
09:30 1026 30.3 855 25.25 19 66.1 31 1.5 34.7
09:35 1026 30.3 855 25.25 19.8 67.7 29 1.4 34.5
09:40 1026 30.3 855 25.25 19.8 67.6 30 1.6 35
09:45 1026 30.3 855 25.25 19.3 66.7 28 0.2 32.4
09:50 1026 30.3 855 25.25 20.3 68.6 26 0.5 32.9
09:55 1026 30.3 855 25.25 20.8 69.4 28 1.8 35.3
10:00 1026 30.3 855 25.25 21.3 70.4 26 1.4 34.6
10:05 1026 30.3 855 25.25 21.4 70.4 26 1.2 34.2
10:10 1026 30.3 855 25.25 20.6 69.1 29 2.1 35.8
10:15 1026 30.3 855 25.25 20 68 29 1.5 34.7
10:20 1025 30.27 855 25.25 20.5 69 29 2 35.6
10:25 1025 30.27 855 25.25 20.6 69 26 0.5 32.9
10:30 1025 30.27 855 25.25 21.2 70.1 25 0.4 32.7
10:35 1025 30.27 855 25.25 21.3 70.3 25 0.9 33.7
10:40 1025 30.27 855 25.25 21.3 70.4 26 1.3 34.4
10:45 1025 30.27 855 25.25 21.6 70.9 24 0.3 32.5
10:50 1025 30.27 855 25.25 21.8 71.3 25 1.1 33.9
10:55 1025 30.27 855 25.25 22.1 71.8 23 0 32
11:00 1025 30.27 855 25.25 22.2 71.9 22 -0.5 31.1
11:05 1025 30.27 855 25.25 21.7 71 24 0.4 32.8
11:10 1025 30.27 855 25.25 21.8 71.3 22 -0.9 30.4
11:15 1025 30.27 855 25.25 21.9 71.4 22 -0.8 30.6
11:20 1025 30.27 855 25.25 21.5 70.8 23 -0.6 30.9
11:25 1025 30.27 854 25.22 22.3 72.2 22 0 32
11:30 1025 30.27 855 25.25 22.5 72.5 22 -0.4 31.3
11:35 1025 30.27 854 25.22 22 71.5 22 -0.7 30.7
11:40 1025 30.27 854 25.22 21.2 70.2 24 -0.2 31.6
11:45 1025 30.27 854 25.22 21.9 71.5 23 -0.1 31.9
11:50 1025 30.27 854 25.22 22.6 72.7 22 0.2 32.3
11:55 1025 30.27 854 25.22 23 73.4 22 0.2 32.3
12:00 1025 30.27 854 25.22 22.8 73.1 21 -0.3 31.5
12:05 1025 30.27 854 25.22 22 71.5 22 -0.4 31.2
12:10 1025 30.27 854 25.22 22.8 73.1 21 -0.3 31.5
12:15 1025 30.27 854 25.22 23.2 73.7 21 -0.2 31.7
12:20 1025 30.27 854 25.22 23.2 73.8 22 0.6 33.1
12:25 1025 30.27 854 25.22 23.9 75.1 20 -0.1 31.8
12:30 1025 30.27 854 25.22 24 75.1 20 -0.2 31.7
12:35 1025 30.27 854 25.22 24.2 75.5 20 -0 32
12:40 1025 30.27 854 25.22 23.8 74.8 21 0.4 32.8
12:45 1025 30.27 854 25.22 23.8 74.9 21 0.3 32.6
12:50 1025 30.27 854 25.22 24.2 75.6 21 0.7 33.2
12:55 1025 30.27 854 25.22 24.1 75.4 21 0.5 32.9
13:00 1025 30.27 854 25.22 24.2 75.6 20 -0.2 31.7
13:05 1025 30.27 854 25.22 25 77 19 -0 31.9
13:10 1025 30.27 854 25.22 25 77 19 0.3 32.5
13:15 1025 30.27 854 25.22 23.9 75.1 18 -1.3 29.6
13:20 1025 30.27 854 25.22 24.7 76.4 19 -0.4 31.4
13:25 1025 30.27 854 25.22 24.8 76.6 19 -0.3 31.4
13:30 1025 30.27 854 25.22 25 76.9 20 0.4 32.8
13:35 1025 30.27 854 25.22 24.7 76.5 20 0.3 32.6
13:40 1025 30.27 854 25.22 24.6 76.2 19 -0.4 31.3
13:45 1025 30.27 854 25.22 24.7 76.4 20 0.2 32.3
13:50 1025 30.27 854 25.22 24.5 76.2 19 -0.3 31.5
13:55 1025 30.27 854 25.22 24.4 75.8 19 -0.5 31.1
14:00 1024 30.24 854 25.22 24.4 75.9 19 -0.5 31.2
14:05 1024 30.24 854 25.22 24.7 76.4 19 -0.3 31.4
14:10 1024 30.24 854 25.22 24.3 75.7 20 -0.2 31.7
14:15 1024 30.24 854 25.22 23.8 74.8 20 -0.4 31.3
14:20 1024 30.24 854 25.22 24.3 75.7 18 -1.1 30
14:25 1024 30.24 854 25.22 24.9 76.8 17 -1.6 29.1
14:30 1024 30.24 854 25.22 24.9 76.9 18 -1 30.2
14:35 1024 30.24 854 25.22 25.2 77.3 18 -0.7 30.7
14:40 1024 30.24 854 25.22 24.6 76.2 17 -1.5 29.3
14:45 1024 30.24 854 25.22 24.6 76.2 18 -1 30.2
14:50 1024 30.24 854 25.22 25.3 77.5 16 -2.1 28.2
14:55 1024 30.24 854 25.22 25.4 77.8 16 -2.3 27.9
15:00 1024 30.24 854 25.22 25.4 77.7 16 -2.1 28.3
15:05 1024 30.24 853 25.19 25.6 78 15 -2.3 27.8
15:10 1024 30.24 853 25.19 25.4 77.7 16 -1.7 28.9
15:15 1024 30.24 853 25.19 25.7 78.3 15 -2.6 27.3
15:20 1024 30.24 853 25.19 26 78.7 15 -2.3 27.9
15:25 1024 30.24 853 25.19 25.8 78.5 15 -2.6 27.3
15:30 1024 30.24 853 25.19 25.9 78.7 15 -2.6 27.3
15:35 1024 30.24 853 25.19 25.7 78.3 15 -2.9 26.8
15:40 1024 30.24 853 25.19 26.3 79.4 15 -2.5 27.5
15:45 1024 30.24 853 25.19 26.9 80.4 13 -3.3 26
15:50 1024 30.24 853 25.19 26.9 80.4 14 -2.6 27.4
15:55 1024 30.24 853 25.19 26.9 80.3 14 -2.5 27.5
16:00 1024 30.24 853 25.19 26.9 80.4 14 -2.9 26.7
16:05 1024 30.24 853 25.19 26.1 79.1 15 -2.3 27.8
16:10 1024 30.24 853 25.19 26.1 79 15 -2.4 27.7
16:15 1024 30.24 853 25.19 26.1 78.9 15 -2.6 27.3
16:20 1024 30.24 853 25.19 26.3 79.4 14 -2.6 27.4
16:25 1024 30.24 853 25.19 26.6 79.9 14 -2.4 27.6
16:30 1024 30.24 853 25.19 26.4 79.5 14 -3.1 26.4
16:35 1024 30.24 853 25.19 26.6 79.9 14 -2.6 27.3
16:40 1024 30.24 853 25.19 26.7 80 14 -2.7 27.1
16:45 1024 30.24 853 25.19 26.8 80.3 14 -2.5 27.6
16:50 1024 30.24 853 25.19 26.9 80.5 15 -2 28.4
16:55 1024 30.24 853 25.19 27.1 80.7 17 0.1 32.3
17:00 1024 30.24 853 25.19 27.1 80.7 14 -2.4 27.7
17:05 1024 30.24 853 25.19 26.8 80.3 15 -1.9 28.5
17:10 1024 30.24 853 25.19 26.7 80 15 -2 28.4
17:15 1024 30.24 853 25.19 25.9 78.6 15 -2.2 28
17:20 1024 30.24 853 25.19 25.2 77.3 17 -1.7 29
17:25 1024 30.24 853 25.19 25.3 77.5 16 -2.2 28.1
17:30 1024 30.24 853 25.19 25.7 78.3 15 -2.5 27.6
17:35 1024 30.24 853 25.19 25.5 77.9 15 -2.5 27.5
17:40 1024 30.24 853 25.19 25.7 78.2 15 -2.4 27.7
17:45 1024 30.24 853 25.19 25.8 78.5 15 -2.5 27.5
17:50 1024 30.24 853 25.19 26.2 79.1 15 -2.4 27.7
17:55 1024 30.24 853 25.19 25.9 78.7 15 -2 28.3
18:00 1024 30.24 853 25.19 25.5 77.8 16 -2.3 27.8
18:05 1024 30.24 853 25.19 25.1 77.2 16 -2.5 27.5
18:10 1024 30.24 853 25.19 24.8 76.7 16 -2.8 26.9
18:15 1024 30.24 853 25.19 24.7 76.4 16 -2.6 27.2
18:20 1024 30.24 853 25.19 25.2 77.4 15 -2.6 27.3
18:25 1024 30.24 853 25.19 25.7 78.3 15 -2.9 26.7
18:30 1024 30.24 853 25.19 25.5 78 15 -2.4 27.6
18:35 1024 30.24 853 25.19 25 77 16 -2.2 28
18:40 1024 30.24 854 25.22 24.7 76.5 17 -1.8 28.8
18:45 1024 30.24 854 25.22 24.8 76.6 16 -2.9 26.8
18:50 1024 30.24 854 25.22 24.7 76.4 16 -2.5 27.5
18:55 1024 30.24 854 25.22 24.7 76.4 18 -0.9 30.3
19:00 1025 30.27 854 25.22 24.6 76.3 17 -1.6 29.1
19:05 1025 30.27 854 25.22 24.5 76.1 19 -0.3 31.5
19:10 1025 30.27 854 25.22 24.2 75.6 20 0.4 32.7
19:15 1025 30.27 854 25.22 24.1 75.4 20 0.3 32.6
19:20 1025 30.27 854 25.22 23.9 75 21 0.8 33.4
19:25 1025 30.27 854 25.22 23.8 74.8 22 1.2 34.2
19:30 1025 30.27 854 25.22 23.6 74.5 23 1.2 34.2
19:35 1025 30.27 854 25.22 23.5 74.2 23 1.5 34.7
19:40 1025 30.27 854 25.22 23.2 73.8 23 1.3 34.3
19:45 1025 30.27 854 25.22 23 73.4 23 1.2 34.1
19:50 1025 30.27 854 25.22 22.8 73 24 1.1 34
19:55 1025 30.27 854 25.22 22.7 72.8 23 0.6 33.1
20:00 1025 30.27 854 25.22 22.5 72.5 24 1.3 34.3
20:05 1025 30.27 854 25.22 22.3 72.2 25 1.5 34.8
20:10 1025 30.27 854 25.22 22 71.6 25 1.4 34.5
20:15 1025 30.27 854 25.22 21.8 71.3 25 1.2 34.1
20:20 1025 30.27 855 25.25 21.6 70.8 25 1 33.8
20:25 1025 30.27 855 25.25 21.3 70.4 26 1.2 34.2
20:30 1026 30.3 855 25.25 21.1 69.9 27 1.6 34.9
20:35 1026 30.3 855 25.25 21 69.8 28 2.1 35.7
20:40 1026 30.3 855 25.25 20.4 68.7 32 3.2 37.7
20:45 1026 30.3 855 25.25 19.4 67 34 3.3 37.9
20:50 1026 30.3 855 25.25 18.9 66 36 3.7 38.7
20:55 1026 30.3 855 25.25 18.7 65.7 34 2.8 37
21:00 1026 30.3 855 25.25 18.8 65.8 32 1.8 35.3
21:05 1026 30.3 855 25.25 19.1 66.4 30 1.1 34.1
21:10 1026 30.3 856 25.28 19.2 66.6 28 0.6 33
21:15 1026 30.3 856 25.28 19.3 66.7 29 1 33.8
21:20 1027 30.33 856 25.28 18.8 65.9 29 0.7 33.3
21:25 1027 30.33 856 25.28 18.7 65.7 29 0.6 33
21:30 1027 30.33 856 25.28 18.7 65.6 30 0.7 33.3
21:35 1027 30.33 856 25.28 18.5 65.4 31 1.1 33.9
21:40 1027 30.33 856 25.28 18.3 65 32 1.4 34.6
21:45 1027 30.33 856 25.28 18.1 64.5 33 1.7 35
21:50 1027 30.33 856 25.28 17.9 64.2 33 1.7 35
21:55 1027 30.33 856 25.28 17.7 63.9 34 1.9 35.5
22:00 1027 30.33 856 25.28 17.6 63.6 35 2 35.7
22:05 1027 30.33 856 25.28 17.4 63.3 36 2.4 36.3
22:10 1027 30.33 856 25.28 17.2 63 37 2.5 36.4
22:15 1027 30.33 856 25.28 17.1 62.8 37 2.4 36.3
22:20 1027 30.33 856 25.28 17 62.7 37 2.4 36.3
22:25 1027 30.33 856 25.28 17 62.6 37 2.4 36.2
22:30 1027 30.33 856 25.28 17.1 62.8 37 2.3 36.1
22:35 1027 30.33 856 25.28 17.1 62.9 36 2.1 35.8
22:40 1027 30.33 856 25.28 17.1 62.8 36 2.2 35.9
22:45 1027 30.33 856 25.28 17 62.7 37 2.3 36.1
22:50 1027 30.33 856 25.28 16.9 62.5 37 2.3 36.1
22:55 1027 30.33 856 25.28 16.9 62.5 37 2.2 36
23:00 1027 30.33 856 25.28 16.9 62.4 37 2.3 36.1
23:05 1027 30.33 856 25.28 16.9 62.5 37 2.2 36
23:10 1027 30.33 856 25.28 16.9 62.3 38 2.5 36.5
23:15 1027 30.33 856 25.28 16.7 62.1 37 2.2 36
23:20 1027 30.33 856 25.28 16.8 62.2 38 2.4 36.3
23:25 1027 30.33 856 25.28 16.7 62.1 38 2.5 36.5
23:30 1027 30.33 856 25.28 16.7 62 38 2.5 36.5
23:35 1027 30.33 856 25.28 16.6 61.8 39 2.6 36.6
23:40 1027 30.33 856 25.28 16.5 61.7 39 2.6 36.7
23:45 1027 30.33 856 25.28 16.4 61.6 39 2.7 36.8
23:50 1027 30.33 856 25.28 16.4 61.5 40 2.7 36.9
23:55 1027 30.33 856 25.28 16.4 61.4 40 2.8 37.1
24:00 1027 30.33 856 25.28 16.3 61.3 40 2.9 37.2